createdAt,value
2022-11-20T00:01:28.740Z,-6.35
2022-11-20T00:03:58.963Z,-6.35
2022-11-20T00:06:28.182Z,-6.38
2022-11-20T00:08:57.725Z,-6.36
2022-11-20T00:11:26.721Z,-6.35
2022-11-20T00:13:58.323Z,-6.34
2022-11-20T00:16:27.726Z,-6.34
2022-11-20T00:18:55.832Z,-6.35
2022-11-20T00:21:25.831Z,-6.37
2022-11-20T00:23:56.182Z,-6.37
2022-11-20T00:26:25.637Z,-6.35
2022-11-20T00:28:56.438Z,-6.42
2022-11-20T00:31:24.213Z,-6.32
2022-11-20T00:33:51.973Z,-6.42
2022-11-20T00:36:24.827Z,-6.34
2022-11-20T00:38:57.074Z,-6.32
2022-11-20T00:41:25.638Z,-6.34
2022-11-20T00:43:54.518Z,-6.32
2022-11-20T00:46:24.787Z,-6.29
2022-11-20T00:48:52.669Z,-6.31
2022-11-20T00:51:22.561Z,-6.31
2022-11-20T00:53:50.647Z,-6.32
2022-11-20T00:56:20.045Z,-6.30
2022-11-20T00:58:49.320Z,-6.38
2022-11-20T01:01:18.025Z,-6.29
2022-11-20T01:03:48.532Z,-6.27
2022-11-20T01:06:17.275Z,-6.30
2022-11-20T01:08:45.444Z,-6.28
2022-11-20T01:11:16.004Z,-6.28
2022-11-20T01:13:44.826Z,-6.30
2022-11-20T01:16:19.288Z,-6.22
2022-11-20T01:18:48.593Z,-6.28
2022-11-20T01:21:22.194Z,-6.26
2022-11-20T01:23:50.776Z,-6.28
2022-11-20T01:26:21.333Z,-6.25
2022-11-20T01:28:49.406Z,-6.29
2022-11-20T01:31:19.880Z,-6.28
2022-11-20T01:33:49.426Z,-6.25
2022-11-20T01:36:18.921Z,-6.27
2022-11-20T01:38:46.778Z,-6.28
2022-11-20T01:41:36.263Z,-6.30
2022-11-20T01:44:05.070Z,-6.26
2022-11-20T01:46:41.142Z,-6.25
2022-11-20T01:49:38.737Z,-6.27
2022-11-20T01:52:12.556Z,-6.24
2022-11-20T01:54:42.439Z,-6.13
2022-11-20T01:57:13.734Z,-6.22
2022-11-20T01:59:49.245Z,-6.32
2022-11-20T02:02:22.246Z,-6.30
2022-11-20T02:04:53.026Z,-6.28
2022-11-20T02:07:21.319Z,-6.34
2022-11-20T02:09:48.854Z,-6.30
2022-11-20T02:12:34.819Z,-6.32
2022-11-20T02:15:25.115Z,-6.29
2022-11-20T02:17:56.381Z,-6.27
2022-11-20T02:20:23.871Z,-6.29
2022-11-20T02:23:14.091Z,-6.22
2022-11-20T02:25:44.899Z,-6.24
2022-11-20T02:28:12.269Z,-6.26
2022-11-20T02:30:39.647Z,-6.27
2022-11-20T02:33:06.987Z,-6.24
2022-11-20T02:35:34.339Z,-6.14
2022-11-20T02:38:03.924Z,-6.13
2022-11-20T02:40:31.419Z,-6.12
2022-11-20T02:42:58.888Z,-6.08
2022-11-20T02:45:26.631Z,-6.05
2022-11-20T02:47:54.364Z,-6.03
2022-11-20T02:50:21.911Z,-6.01
2022-11-20T02:52:49.292Z,-5.99
2022-11-20T02:55:16.782Z,-5.94
2022-11-20T02:57:44.607Z,-5.94
2022-11-20T03:00:12.732Z,-5.87
2022-11-20T03:02:40.060Z,-5.83
2022-11-20T03:05:07.902Z,-5.77
2022-11-20T03:07:35.341Z,-5.76
2022-11-20T03:10:05.531Z,-5.71
2022-11-20T03:12:33.048Z,-5.74
2022-11-20T03:15:00.425Z,-5.66
2022-11-20T03:17:28.039Z,-5.64
2022-11-20T03:19:55.357Z,-5.59
2022-11-20T03:22:41.162Z,-5.45
2022-11-20T03:25:18.640Z,-5.37
2022-11-20T03:28:15.582Z,-5.38
2022-11-20T03:30:49.028Z,-5.38
2022-11-20T03:33:29.662Z,-5.33
2022-11-20T03:36:09.476Z,-5.24
2022-11-20T03:38:37.489Z,-5.26
2022-11-20T03:41:07.696Z,-5.18
2022-11-20T03:43:35.660Z,-5.38
2022-11-20T03:46:06.435Z,-5.16
2022-11-20T03:48:36.760Z,-5.21
2022-11-20T03:51:14.291Z,-5.04
2022-11-20T03:53:43.468Z,-5.01
2022-11-20T03:56:12.450Z,-4.92
2022-11-20T03:58:41.745Z,-4.78
2022-11-20T04:01:14.765Z,-4.62
2022-11-20T04:03:43.667Z,-4.48
2022-11-20T04:06:15.180Z,-4.42
2022-11-20T04:08:43.310Z,-4.32
2022-11-20T04:11:10.742Z,-4.25
2022-11-20T04:13:38.414Z,-4.19
2022-11-20T04:16:07.947Z,-4.12
2022-11-20T04:18:35.903Z,-4.07
2022-11-20T04:21:04.826Z,-4.02
2022-11-20T04:23:32.445Z,-3.99
2022-11-20T04:26:08.651Z,-3.90
2022-11-20T04:28:36.683Z,-3.92
2022-11-20T04:31:12.877Z,-3.81
2022-11-20T04:33:41.401Z,-3.74
2022-11-20T04:36:15.858Z,-3.69
2022-11-20T04:38:43.681Z,-3.76
2022-11-20T04:41:17.855Z,-3.58
2022-11-20T04:43:50.174Z,-3.56
2022-11-20T04:46:19.107Z,-3.49
2022-11-20T04:48:47.671Z,-3.49
2022-11-20T04:51:15.024Z,-3.43
2022-11-20T04:53:43.186Z,-3.39
2022-11-20T04:56:13.006Z,-3.37
2022-11-20T04:58:41.194Z,-3.34
2022-11-20T05:01:20.741Z,-3.51
2022-11-20T05:03:48.508Z,-3.64
2022-11-20T05:06:18.198Z,-3.66
2022-11-20T05:08:45.619Z,-3.63
2022-11-20T05:11:16.064Z,-3.61
2022-11-20T05:13:43.608Z,-3.57
2022-11-20T05:16:13.633Z,-3.50
2022-11-20T05:18:41.715Z,-3.48
2022-11-20T05:21:11.220Z,-3.48
2022-11-20T05:23:39.532Z,-3.42
2022-11-20T05:26:09.144Z,-3.39
2022-11-20T05:28:36.580Z,-3.40
2022-11-20T05:31:15.593Z,-3.30
2022-11-20T05:33:44.785Z,-3.36
2022-11-20T05:36:14.917Z,-3.31
2022-11-20T05:38:43.269Z,-3.22
2022-11-20T05:41:19.236Z,-3.14
2022-11-20T05:43:47.939Z,-3.13
2022-11-20T05:46:24.739Z,-3.10
2022-11-20T05:48:55.860Z,-3.07
2022-11-20T05:51:23.414Z,-2.99
2022-11-20T05:53:50.845Z,-2.96
2022-11-20T05:56:21.111Z,-2.88
2022-11-20T05:58:49.745Z,-2.84
2022-11-20T06:01:23.417Z,-2.74
2022-11-20T06:03:52.215Z,-2.63
2022-11-20T06:06:23.349Z,-2.61
2022-11-20T06:08:51.141Z,-2.58
2022-11-20T06:11:19.083Z,-2.48
2022-11-20T06:13:47.575Z,-2.43
2022-11-20T06:16:18.038Z,-2.29
2022-11-20T06:18:46.103Z,-2.22
2022-11-20T06:21:18.611Z,-2.12
2022-11-20T06:23:46.477Z,-2.08
2022-11-20T06:26:17.501Z,-2.00
2022-11-20T06:28:45.060Z,-1.97
2022-11-20T06:31:15.528Z,-1.88
2022-11-20T06:33:44.122Z,-1.79
2022-11-20T06:36:13.711Z,-1.76
2022-11-20T06:38:42.264Z,-1.67
2022-11-20T06:41:16.140Z,-1.60
2022-11-20T06:43:43.658Z,-1.49
2022-11-20T06:46:13.207Z,-1.48
2022-11-20T06:48:50.718Z,-1.48
2022-11-20T06:51:38.936Z,-1.49
2022-11-20T06:54:06.641Z,-1.60
2022-11-20T06:56:40.083Z,-1.35
2022-11-20T06:59:08.537Z,-1.22
2022-11-20T07:01:38.155Z,-1.24
2022-11-20T07:04:05.889Z,-1.16
2022-11-20T07:06:33.865Z,-1.16
2022-11-20T07:09:01.370Z,-1.09
2022-11-20T07:11:31.176Z,-1.11
2022-11-20T07:13:58.890Z,-1.07
2022-11-20T07:16:26.587Z,-0.92
2022-11-20T07:18:54.224Z,-0.81
2022-11-20T07:21:24.752Z,-0.78
2022-11-20T07:23:52.516Z,-0.71
2022-11-20T07:26:23.740Z,-0.59
2022-11-20T07:28:56.109Z,-0.58
2022-11-20T07:31:24.084Z,-0.49
2022-11-20T07:33:51.833Z,-0.43
2022-11-20T07:36:19.495Z,-0.38
2022-11-20T07:38:47.055Z,-0.38
2022-11-20T07:41:14.515Z,-0.40
2022-11-20T07:43:42.001Z,-0.35
2022-11-20T07:46:09.554Z,-0.33
2022-11-20T07:48:37.026Z,-0.30
2022-11-20T07:51:04.494Z,-0.27
2022-11-20T07:53:31.906Z,-0.27
2022-11-20T07:56:04.040Z,-0.20
2022-11-20T07:58:34.105Z,-0.19
2022-11-20T08:01:06.490Z,-0.11
2022-11-20T08:03:34.509Z,-0.09
2022-11-20T08:06:06.055Z,-0.05
2022-11-20T08:08:37.814Z,-0.01
2022-11-20T08:11:26.408Z,0.06
2022-11-20T08:14:12.075Z,0.13
2022-11-20T08:16:48.236Z,0.25
2022-11-20T08:19:17.925Z,0.32
2022-11-20T08:21:45.923Z,0.36
2022-11-20T08:24:13.783Z,0.38
2022-11-20T08:26:41.852Z,0.44
2022-11-20T08:29:09.516Z,0.51
2022-11-20T08:31:37.118Z,0.51
2022-11-20T08:34:09.007Z,0.63
2022-11-20T08:36:37.377Z,0.70
2022-11-20T08:39:05.084Z,0.76
2022-11-20T08:41:38.236Z,0.76
2022-11-20T08:44:41.331Z,0.69
2022-11-20T08:47:29.649Z,0.72
2022-11-20T08:50:41.782Z,0.77
2022-11-20T08:53:19.073Z,0.60
2022-11-20T08:55:58.995Z,0.44
2022-11-20T08:58:27.363Z,0.43
2022-11-20T09:00:55.378Z,0.58
2022-11-20T09:03:23.028Z,0.50
2022-11-20T09:05:50.511Z,0.49
2022-11-20T09:08:17.893Z,0.46
2022-11-20T09:10:45.292Z,0.40
2022-11-20T09:13:12.704Z,0.35
2022-11-20T09:15:40.294Z,0.30
2022-11-20T09:18:08.061Z,0.23
2022-11-20T09:20:45.274Z,0.23
2022-11-20T09:27:09.404Z,0.36
2022-11-20T09:30:48.416Z,0.09
2022-11-20T09:34:03.796Z,-0.24
2022-11-20T09:37:30.556Z,0.14
2022-11-20T09:39:58.428Z,-0.19
2022-11-20T09:42:29.555Z,0.01
2022-11-20T09:45:10.463Z,-0.01
2022-11-20T09:48:05.924Z,-0.01
2022-11-20T09:50:43.736Z,-0.07
2022-11-20T09:53:20.275Z,-0.13
2022-11-20T09:55:49.274Z,-0.16
2022-11-20T09:58:30.951Z,-0.06
2022-11-20T10:01:12.944Z,-0.11
2022-11-20T10:03:50.585Z,-0.09
2022-11-20T10:06:21.721Z,-0.13
2022-11-20T10:09:18.134Z,-0.08
2022-11-20T10:12:08.339Z,-0.04
2022-11-20T10:14:59.007Z,-0.09
2022-11-20T10:17:48.442Z,-0.05
2022-11-20T10:20:27.946Z,-0.07
2022-11-20T10:23:06.256Z,-0.09
2022-11-20T10:25:46.714Z,-0.08
2022-11-20T10:28:55.523Z,-0.04
2022-11-20T10:31:41.578Z,-0.11
2022-11-20T10:34:24.494Z,-0.07
2022-11-20T10:37:05.001Z,-0.06
2022-11-20T10:39:49.374Z,-0.06
2022-11-20T10:42:24.964Z,-0.11
2022-11-20T10:45:05.756Z,-0.13
2022-11-20T10:47:34.497Z,-0.16
2022-11-20T10:50:12.140Z,-0.13
2022-11-20T10:53:05.359Z,-0.14
2022-11-20T10:55:51.979Z,-0.14
2022-11-20T10:58:38.684Z,-0.20
2022-11-20T11:01:07.466Z,-0.26
2022-11-20T11:03:35.211Z,-0.30
2022-11-20T11:06:18.871Z,-0.20
2022-11-20T11:08:49.055Z,-0.27
2022-11-20T11:11:30.163Z,-0.24
2022-11-20T11:14:08.517Z,-0.24
2022-11-20T11:16:36.272Z,-0.31
2022-11-20T11:19:08.525Z,-0.35
2022-11-20T11:21:37.188Z,-0.39
2022-11-20T11:24:34.620Z,-0.43
2022-11-20T11:27:00.270Z,-0.68
2022-11-20T11:29:30.828Z,-0.62
2022-11-20T11:32:21.502Z,-0.60
2022-11-20T11:35:23.473Z,-0.84
2022-11-20T11:37:52.450Z,-0.82
2022-11-20T11:40:25.072Z,-0.90
2022-11-20T11:43:00.415Z,-0.97
2022-11-20T11:45:28.939Z,-0.94
2022-11-20T11:48:02.143Z,-0.93
2022-11-20T11:50:31.055Z,-0.99
2022-11-20T11:53:15.974Z,-0.95
2022-11-20T11:56:02.053Z,-1.00
2022-11-20T11:58:53.543Z,-1.04
2022-11-20T12:01:56.780Z,-1.10
2022-11-20T12:04:49.480Z,-1.14
2022-11-20T12:08:11.010Z,-1.16
2022-11-20T12:11:06.207Z,-1.22
2022-11-20T12:13:48.765Z,-1.31
2022-11-20T12:16:20.290Z,-1.41
2022-11-20T12:18:51.726Z,-1.50
2022-11-20T12:21:28.867Z,-1.58
2022-11-20T12:24:08.603Z,-1.55
2022-11-20T12:27:05.210Z,-1.64
2022-11-20T12:30:02.395Z,-1.65
2022-11-20T12:32:54.302Z,-1.67
2022-11-20T12:36:06.558Z,-1.76
2022-11-20T12:39:21.674Z,-1.76
2022-11-20T12:42:36.759Z,-1.76
2022-11-20T12:45:36.554Z,-1.81
2022-11-20T12:48:33.119Z,-1.86
2022-11-20T12:51:22.517Z,-1.86
2022-11-20T12:54:07.174Z,-1.95
2022-11-20T12:57:04.141Z,-2.24
2022-11-20T12:59:55.765Z,-2.14
2022-11-20T13:02:50.820Z,-2.20
2022-11-20T13:05:24.112Z,-2.23
2022-11-20T13:07:54.734Z,-2.24
2022-11-20T13:10:40.611Z,-2.28
2022-11-20T13:13:26.061Z,-2.33
2022-11-20T13:16:03.922Z,-2.36
2022-11-20T13:18:40.159Z,-2.44
2022-11-20T13:21:18.192Z,-2.40
2022-11-20T13:23:45.921Z,-2.51
2022-11-20T13:26:24.836Z,-2.48
2022-11-20T13:29:10.792Z,-2.50
2022-11-20T13:31:44.156Z,-2.53
2022-11-20T13:34:37.329Z,-2.64
2022-11-20T13:37:07.543Z,-2.71
2022-11-20T13:39:37.485Z,-2.94
2022-11-20T13:42:28.046Z,-2.66
2022-11-20T13:44:56.849Z,-2.74
2022-11-20T13:47:26.669Z,-2.83
2022-11-20T13:49:56.393Z,-2.80
2022-11-20T13:52:45.919Z,-2.70
2022-11-20T13:55:50.206Z,-2.83
2022-11-20T13:58:30.031Z,-2.80
2022-11-20T14:01:16.554Z,-2.80
2022-11-20T14:04:05.080Z,-2.96
2022-11-20T14:06:43.450Z,-2.97
2022-11-20T14:09:36.542Z,-2.94
2022-11-20T14:12:05.456Z,-2.99
2022-11-20T14:14:35.073Z,-3.02
2022-11-20T14:17:18.683Z,-3.08
2022-11-20T14:19:48.304Z,-3.06
2022-11-20T14:22:21.369Z,-3.11
2022-11-20T14:24:50.010Z,-3.15
2022-11-20T14:27:22.544Z,-3.20
2022-11-20T14:29:52.146Z,-3.32
2022-11-20T14:32:23.372Z,-3.34
2022-11-20T14:34:52.115Z,-3.33
2022-11-20T14:37:34.799Z,-3.30
2022-11-20T14:40:02.214Z,-3.35
2022-11-20T14:42:32.160Z,-3.39
2022-11-20T14:45:02.205Z,-3.37
2022-11-20T14:47:32.629Z,-3.40
2022-11-20T14:50:08.676Z,-3.33
2022-11-20T14:52:38.581Z,-3.33
2022-11-20T14:55:06.484Z,-3.32
2022-11-20T14:57:37.265Z,-3.27
2022-11-20T15:00:15.718Z,-3.24
2022-11-20T15:02:45.806Z,-3.26
2022-11-20T15:05:16.389Z,-3.32
2022-11-20T15:07:48.259Z,-3.32
2022-11-20T15:10:27.462Z,-3.22
2022-11-20T15:13:03.794Z,-3.15
2022-11-20T15:15:51.442Z,-3.21
2022-11-20T15:18:25.711Z,-3.18
2022-11-20T15:20:55.106Z,-3.24
2022-11-20T15:23:22.586Z,-3.30
2022-11-20T15:25:51.065Z,-3.28
2022-11-20T15:28:32.081Z,-3.33
2022-11-20T15:30:59.686Z,-3.42
2022-11-20T15:33:27.258Z,-3.41
2022-11-20T15:35:54.938Z,-3.40
2022-11-20T15:38:22.599Z,-3.39
2022-11-20T15:40:50.092Z,-3.45
2022-11-20T15:43:17.550Z,-3.41
2022-11-20T15:46:17.053Z,-3.25
2022-11-20T15:48:52.772Z,-3.29
2022-11-20T15:51:26.326Z,-3.34
2022-11-20T15:53:54.099Z,-3.29
2022-11-20T15:56:21.551Z,-3.35
2022-11-20T15:58:49.204Z,-3.36
2022-11-20T16:01:19.916Z,-3.44
2022-11-20T16:03:48.141Z,-3.59
2022-11-20T16:06:17.510Z,-3.65
2022-11-20T16:08:45.282Z,-3.87
2022-11-20T16:11:18.935Z,-3.61
2022-11-20T16:14:06.278Z,-3.69
2022-11-20T16:16:36.736Z,-3.57
2022-11-20T16:19:07.566Z,-3.83
2022-11-20T16:21:36.137Z,-3.72
2022-11-20T16:24:06.513Z,-4.00
2022-11-20T16:26:35.074Z,-3.78
2022-11-20T16:29:04.855Z,-3.83
2022-11-20T16:31:33.500Z,-4.05
2022-11-20T16:34:10.196Z,-3.79
2022-11-20T16:36:44.917Z,-3.85
2022-11-20T16:39:13.475Z,-3.78
2022-11-20T16:41:41.007Z,-3.82
2022-11-20T16:44:11.941Z,-3.87
2022-11-20T16:46:41.088Z,-3.88
2022-11-20T16:49:13.850Z,-3.78
2022-11-20T16:51:42.224Z,-3.88
2022-11-20T16:54:13.037Z,-3.92
2022-11-20T16:56:43.447Z,-3.89
2022-11-20T16:59:14.117Z,-3.91
2022-11-20T17:01:43.397Z,-4.00
2022-11-20T17:04:11.083Z,-3.97
2022-11-20T17:06:42.268Z,-3.88
2022-11-20T17:09:11.189Z,-3.96
2022-11-20T17:11:39.113Z,-4.01
2022-11-20T17:14:09.768Z,-4.03
2022-11-20T17:16:38.664Z,-4.06
2022-11-20T17:19:09.216Z,-4.09
2022-11-20T17:21:37.465Z,-4.11
2022-11-20T17:24:07.137Z,-4.16
2022-11-20T17:26:35.505Z,-4.07
2022-11-20T17:29:10.302Z,-4.02
2022-11-20T17:31:40.979Z,-4.07
2022-11-20T17:34:14.124Z,-4.02
2022-11-20T17:36:46.188Z,-4.00
2022-11-20T17:39:17.859Z,-3.96
2022-11-20T17:41:45.803Z,-4.07
2022-11-20T17:44:13.665Z,-4.06
2022-11-20T17:46:41.323Z,-4.07
2022-11-20T17:49:09.054Z,-4.10
2022-11-20T17:51:36.598Z,-4.10
2022-11-20T17:54:07.782Z,-4.06
2022-11-20T17:56:55.032Z,-4.10
2022-11-20T17:59:23.149Z,-4.11
2022-11-20T18:01:50.975Z,-4.04
2022-11-20T18:04:18.622Z,-4.03
2022-11-20T18:06:46.370Z,-4.05
2022-11-20T18:09:14.061Z,-4.05
2022-11-20T18:11:42.802Z,-4.02
2022-11-20T18:14:36.745Z,-4.03
2022-11-20T18:17:07.613Z,-4.10
2022-11-20T18:19:48.058Z,-4.10
2022-11-20T18:22:31.200Z,-4.18
2022-11-20T18:24:59.004Z,-4.27
2022-11-20T18:27:26.510Z,-4.25
2022-11-20T18:29:54.088Z,-4.29
2022-11-20T18:32:22.984Z,-4.27
2022-11-20T18:34:51.534Z,-4.30
2022-11-20T18:37:20.187Z,-4.38
2022-11-20T18:39:47.699Z,-4.38
2022-11-20T18:42:35.134Z,-4.46
2022-11-20T18:45:04.719Z,-4.50
2022-11-20T18:47:38.176Z,-4.39
2022-11-20T18:50:07.463Z,-4.47
2022-11-20T18:52:39.751Z,-4.38
2022-11-20T18:55:08.216Z,-4.45
2022-11-20T18:57:35.881Z,-4.49
2022-11-20T19:00:08.948Z,-4.50
2022-11-20T19:02:42.052Z,-4.53
2022-11-20T19:05:14.893Z,-4.53
2022-11-20T19:07:43.336Z,-4.56
2022-11-20T19:10:10.939Z,-4.60
2022-11-20T19:12:38.562Z,-4.63
2022-11-20T19:15:06.490Z,-4.61
2022-11-20T19:17:35.050Z,-4.69
2022-11-20T19:20:02.464Z,-4.64
2022-11-20T19:22:31.416Z,-4.70
2022-11-20T19:24:58.896Z,-4.70
2022-11-20T19:27:26.450Z,-4.77
2022-11-20T19:29:57.763Z,-4.79
2022-11-20T19:32:25.271Z,-4.78
2022-11-20T19:34:52.799Z,-4.78
2022-11-20T19:37:20.237Z,-4.84
2022-11-20T19:39:47.580Z,-4.88
2022-11-20T19:42:15.159Z,-4.89
2022-11-20T19:44:42.583Z,-4.91
2022-11-20T19:47:14.176Z,-5.00
2022-11-20T19:49:42.392Z,-4.95
2022-11-20T19:52:09.953Z,-4.94
2022-11-20T19:54:37.567Z,-4.97
2022-11-20T19:57:04.957Z,-5.00
2022-11-20T19:59:32.345Z,-5.00
2022-11-20T20:01:59.811Z,-5.03
2022-11-20T20:04:27.615Z,-5.10
2022-11-20T20:06:55.263Z,-5.12
2022-11-20T20:09:24.082Z,-5.16
2022-11-20T20:11:51.532Z,-5.12
2022-11-20T20:14:19.492Z,-5.13
2022-11-20T20:16:47.139Z,-5.23
2022-11-20T20:19:17.433Z,-5.16
2022-11-20T20:21:45.147Z,-5.17
2022-11-20T20:24:12.749Z,-5.25
2022-11-20T20:26:40.354Z,-5.27
2022-11-20T20:29:07.863Z,-5.30
2022-11-20T20:31:35.845Z,-5.36
2022-11-20T20:34:05.584Z,-5.36
2022-11-20T20:36:33.469Z,-5.36
2022-11-20T20:39:02.972Z,-5.41
2022-11-20T20:41:31.262Z,-5.43
2022-11-20T20:44:17.461Z,-5.43
2022-11-20T20:46:44.804Z,-5.42
2022-11-20T20:49:12.318Z,-5.41
2022-11-20T20:51:39.786Z,-5.36
2022-11-20T20:54:07.139Z,-5.39
2022-11-20T20:56:34.767Z,-5.35
2022-11-20T20:59:03.333Z,-5.32
2022-11-20T21:01:30.777Z,-5.38
2022-11-20T21:03:58.222Z,-5.34
2022-11-20T21:06:26.224Z,-5.31
2022-11-20T21:08:56.119Z,-5.30
2022-11-20T21:11:23.620Z,-5.30
2022-11-20T21:13:51.160Z,-5.26
2022-11-20T21:16:25.218Z,-5.16
2022-11-20T21:18:52.690Z,-5.18
2022-11-20T21:21:38.364Z,-5.18
2022-11-20T21:24:06.540Z,-5.20
2022-11-20T21:26:34.354Z,-5.23
2022-11-20T21:29:01.836Z,-5.26
2022-11-20T21:31:30.348Z,-5.35
2022-11-20T21:33:58.479Z,-5.34
2022-11-20T21:36:28.495Z,-5.34
2022-11-20T21:38:57.252Z,-5.36
2022-11-20T21:41:26.958Z,-5.44
2022-11-20T21:44:29.034Z,-5.40
2022-11-20T21:46:45.075Z,-5.36
2022-11-20T21:49:13.353Z,-5.40
2022-11-20T21:51:41.063Z,-5.43
2022-11-20T21:54:10.509Z,-5.40
2022-11-20T21:56:37.989Z,-5.44
2022-11-20T21:59:05.327Z,-5.43
2022-11-20T22:01:32.779Z,-5.44
2022-11-20T22:04:02.566Z,-5.39
2022-11-20T22:06:35.602Z,-5.43
2022-11-20T22:09:04.241Z,-5.41
2022-11-20T22:11:31.721Z,-5.45
2022-11-20T22:14:17.815Z,-5.47
2022-11-20T22:16:45.236Z,-5.47
2022-11-20T22:19:16.390Z,-5.42
2022-11-20T22:21:43.813Z,-5.45
2022-11-20T22:24:17.360Z,-5.37
2022-11-20T22:26:45.006Z,-5.42
2022-11-20T22:29:21.168Z,-5.36
2022-11-20T22:31:51.228Z,-5.45
2022-11-20T22:34:18.581Z,-5.42
2022-11-20T22:36:45.986Z,-5.44
2022-11-20T22:39:13.378Z,-5.53
2022-11-20T22:41:40.765Z,-5.52
2022-11-20T22:44:09.289Z,-5.50
2022-11-20T22:46:38.153Z,-5.47
2022-11-20T22:49:08.781Z,-5.53
2022-11-20T22:51:39.579Z,-5.53
2022-11-20T22:54:08.078Z,-5.53
2022-11-20T22:56:35.577Z,-5.52
2022-11-20T22:59:03.336Z,-5.51
2022-11-20T23:01:33.001Z,-5.45
2022-11-20T23:04:02.150Z,-5.39
2022-11-20T23:06:30.578Z,-5.33
2022-11-20T23:08:57.922Z,-5.24
2022-11-20T23:11:27.848Z,-5.14
2022-11-20T23:14:00.580Z,-5.15
2022-11-20T23:16:29.989Z,-5.04
2022-11-20T23:19:03.415Z,-4.98
2022-11-20T23:21:30.847Z,-4.99
2022-11-20T23:23:59.585Z,-4.91
2022-11-20T23:26:35.049Z,-4.84
2022-11-20T23:29:03.572Z,-4.81
2022-11-20T23:31:32.977Z,-4.76
2022-11-20T23:34:00.980Z,-4.75
2022-11-20T23:36:28.795Z,-4.70
2022-11-20T23:38:56.774Z,-4.67
2022-11-20T23:41:29.170Z,-4.56
2022-11-20T23:44:00.174Z,-4.55
2022-11-20T23:46:27.809Z,-4.55
2022-11-20T23:48:55.264Z,-4.46
2022-11-20T23:51:22.721Z,-4.43
2022-11-20T23:53:50.041Z,-4.42
2022-11-20T23:56:17.510Z,-4.41
2022-11-20T23:58:44.967Z,-4.41
